Spencer Heights, Illinois
Current Conditions -  °F | °C
As of 12:55 PM on Friday 24 Oct 2014 (Local Time) from KCIR Reporting Station
Clear Clear  
Wind Chill: 72°   Ceiling: Unl
Heat Index: 72°   Visibility: 10mi
Dew Point: 54°   Wind: 6mph
Humidity: 54%   Direction: 290°WNW
Pressure: 30.11"   Gusts: NA
Location:  37.1202°N, 89.219°W
Report Text: KCIR 241755Z AUTO 29005KT 10SM CLR 22/12 A3011 RMK AO2 60001 T02200123 10220 20084
Loading
Personal Weather Stations






























Interactive Weather Map
Tropical Storm Tracking
New forecast layout! Learn more

10-Day Weather Forecast

Advertisements
Track Severe Weather on mobile